Tuesday, November 21, 2017, 10:50 PM EST

KOKV, Winchester Regional

Location: Winchester, VA, United States Lat: 39.15
Local Time: 10:50 PM EST ( 3:50 GMT) Lon: -78.15
Time Zone: US/Eastern Elev: 728 ft

Show me the last for .
Show Decoded

2017-11-21 22:35 METAR KOKV 220335Z AUTO 21006KT 10SM CLR 09/04 A2998 RMK AO2 =
2017-11-21 22:15 METAR KOKV 220315Z AUTO 22004KT 10SM CLR 10/04 A2999 RMK AO2 =
2017-11-21 21:55 METAR KOKV 220255Z AUTO 22004KT 10SM CLR 10/04 A2999 RMK AO2 =
2017-11-21 21:35 METAR KOKV 220235Z AUTO 24004KT 10SM CLR 09/03 A3000 RMK AO2 =
2017-11-21 21:15 METAR KOKV 220215Z AUTO 23003KT 10SM CLR 09/03 A3000 RMK AO2 =
2017-11-21 20:55 METAR KOKV 220155Z AUTO 20003KT 10SM CLR 09/03 A3000 RMK AO2 =
2017-11-21 20:35 METAR KOKV 220135Z AUTO 19004KT 10SM CLR 08/03 A3000 RMK AO2 =
2017-11-21 20:15 METAR KOKV 220115Z AUTO 00000KT 10SM CLR 08/03 A2999 RMK AO2 =
2017-11-21 19:55 METAR KOKV 220055Z AUTO 18004KT 10SM CLR 08/02 A3000 RMK AO2 =
2017-11-21 19:35 METAR KOKV 220035Z AUTO 18003KT 10SM CLR 10/02 A3000 RMK AO2 =
2017-11-21 19:15 METAR KOKV 220015Z AUTO 18004KT 10SM CLR 10/02 A2999 RMK AO2 =
2017-11-21 18:55 METAR KOKV 212355Z AUTO 17003KT 10SM CLR 10/02 A2999 RMK AO2 =
2017-11-21 18:35 METAR KOKV 212335Z AUTO 17004KT 10SM CLR 10/02 A2999 RMK AO2 =
2017-11-21 18:15 METAR KOKV 212315Z AUTO 17006KT 10SM CLR 11/02 A2998 RMK AO2 =
2017-11-21 17:55 METAR KOKV 212255Z AUTO 17006KT 10SM CLR 11/02 A2998 RMK AO2 =
2017-11-21 17:35 METAR KOKV 212235Z AUTO 17008KT 10SM CLR 11/01 A2997 RMK AO2 =
2017-11-21 17:15 METAR KOKV 212215Z AUTO 16008KT 10SM CLR 12/01 A2997 RMK AO2 =
2017-11-21 16:55 METAR KOKV 212155Z AUTO 16006KT 10SM CLR 12/01 A2997 RMK AO2 =
2017-11-21 16:35 METAR KOKV 212135Z AUTO 16005KT 10SM CLR 12/00 A2997 RMK AO2 =
2017-11-21 16:15 METAR KOKV 212115Z AUTO 16004KT 10SM CLR 12/00 A2997 RMK AO2 =
2017-11-21 15:55 METAR KOKV 212055Z AUTO 16004KT 10SM CLR 14/00 A2997 RMK AO2 =
2017-11-21 15:35 METAR KOKV 212035Z AUTO 17005KT 10SM CLR 15/00 A2997 RMK AO2 =
2017-11-21 15:15 METAR KOKV 212015Z AUTO 17006KT 10SM CLR 15/M01 A2998 RMK AO2 =
2017-11-21 14:55 METAR KOKV 211955Z AUTO 23008KT 10SM CLR 15/M01 A2998 RMK AO2 =
2017-11-21 14:35 METAR KOKV 211935Z AUTO 21007KT 10SM CLR 15/00 A2998 RMK AO2 =
2017-11-21 14:15 METAR KOKV 211915Z AUTO 21005KT 10SM CLR 15/00 A2998 RMK AO2 =
2017-11-21 13:55 METAR KOKV 211855Z AUTO 20009KT 10SM CLR 14/00 A2999 RMK AO2 =
2017-11-21 13:35 METAR KOKV 211835Z AUTO 22007KT 10SM CLR 13/00 A2999 RMK AO2 =
2017-11-21 13:15 METAR KOKV 211815Z AUTO 23006KT 10SM CLR 12/M01 A3000 RMK AO2 =
2017-11-21 12:55 METAR KOKV 211755Z AUTO 24007KT 10SM CLR 12/M01 A3002 RMK AO2 =
2017-11-21 12:35 METAR KOKV 211735Z AUTO 23006KT 10SM CLR 11/M01 A3002 RMK AO2 =
2017-11-21 12:15 METAR KOKV 211715Z AUTO 22005KT 10SM CLR 11/M02 A3003 RMK AO2 =
2017-11-21 11:55 METAR KOKV 211655Z AUTO 22008KT 10SM CLR 11/M02 A3004 RMK AO2 =
2017-11-21 11:35 METAR KOKV 211635Z AUTO 23009KT 10SM CLR 11/M01 A3005 RMK AO2 =
2017-11-21 11:15 METAR KOKV 211615Z AUTO 22008KT 10SM CLR 10/M02 A3006 RMK AO2 =
2017-11-21 10:55 METAR KOKV 211555Z AUTO 23005KT 10SM CLR 09/M02 A3007 RMK AO2 =
2017-11-21 10:35 METAR KOKV 211535Z AUTO 24008KT 10SM CLR 09/M02 A3007 RMK AO2 =
2017-11-21 10:15 METAR KOKV 211515Z AUTO 23008KT 10SM CLR 08/M03 A3008 RMK AO2 =
2017-11-21 09:55 METAR KOKV 211455Z AUTO 24009G15KT 10SM CLR 08/M02 A3009 RMK AO2 =
2017-11-21 09:35 METAR KOKV 211435Z AUTO 23009KT 10SM CLR 07/M03 A3009 RMK AO2 =
2017-11-21 09:15 METAR KOKV 211415Z AUTO 23009KT 10SM CLR 07/M03 A3009 RMK AO2 =
2017-11-21 08:55 METAR KOKV 211355Z AUTO 22008KT 10SM CLR 06/M03 A3009 RMK AO2 =
2017-11-21 08:35 METAR KOKV 211335Z AUTO 22010G14KT 10SM CLR 06/M03 A3008 RMK AO2 =
2017-11-21 08:15 METAR KOKV 211315Z AUTO 22007KT 10SM CLR 05/M04 A3008 RMK AO2 =
2017-11-21 07:55 METAR KOKV 211255Z AUTO 23007KT 10SM CLR 04/M04 A3008 RMK AO2 =
2017-11-21 07:35 METAR KOKV 211235Z AUTO 23006KT 10SM CLR 03/M05 A3008 RMK AO2 =
2017-11-21 07:15 METAR KOKV 211215Z AUTO 23008KT 10SM CLR 03/M05 A3008 RMK AO2 =
2017-11-21 06:55 METAR KOKV 211155Z AUTO 23008KT 10SM CLR 03/M05 A3008 RMK AO2 =
2017-11-21 06:35 METAR KOKV 211135Z AUTO 23009KT 10SM CLR 03/M05 A3008 RMK AO2 =
2017-11-21 06:15 METAR KOKV 211115Z AUTO 24007KT 10SM CLR 03/M05 A3008 RMK AO2 =
2017-11-21 05:55 METAR KOKV 211055Z AUTO 23007KT 10SM CLR 03/M05 A3008 RMK AO2 =
2017-11-21 05:35 METAR KOKV 211035Z AUTO 23007KT 10SM CLR 03/M05 A3007 RMK AO2 =
2017-11-21 05:15 METAR KOKV 211015Z AUTO 23009KT 10SM CLR 03/M05 A3007 RMK AO2 =
2017-11-21 04:55 METAR KOKV 210955Z AUTO 24007KT 10SM CLR 03/M05 A3007 RMK AO2 =
2017-11-21 04:35 METAR KOKV 210935Z AUTO 24005KT 10SM CLR 03/M05 A3007 RMK AO2 =
2017-11-21 04:15 METAR KOKV 210915Z AUTO 21004KT 10SM CLR 03/M05 A3007 RMK AO2 =
2017-11-21 03:55 METAR KOKV 210855Z AUTO 22004KT 10SM CLR 03/M05 A3007 RMK AO2 =
2017-11-21 03:35 METAR KOKV 210835Z AUTO 22005KT 10SM CLR 03/M05 A3008 RMK AO2 =
2017-11-21 03:15 METAR KOKV 210815Z AUTO 21005KT 10SM CLR 02/M05 A3008 RMK AO2 =
2017-11-21 02:55 METAR KOKV 210755Z AUTO 21004KT 10SM CLR 02/M05 A3009 RMK AO2 =
2017-11-21 02:35 METAR KOKV 210735Z AUTO 21005KT 10SM CLR 02/M05 A3009 RMK AO2 =
2017-11-21 02:15 METAR KOKV 210715Z AUTO 22006KT 10SM CLR 03/M05 A3010 RMK AO2 =
2017-11-21 01:55 METAR KOKV 210655Z AUTO 22007KT 10SM CLR 03/M05 A3010 RMK AO2 =
2017-11-21 01:35 METAR KOKV 210635Z AUTO 23003KT 10SM CLR 03/M05 A3010 RMK AO2 =
2017-11-21 01:15 METAR KOKV 210615Z AUTO 23004KT 10SM CLR 03/M05 A3011 RMK AO2 =
2017-11-21 00:55 METAR KOKV 210555Z AUTO 22006KT 10SM CLR 03/M05 A3011 RMK AO2 =
2017-11-21 00:35 METAR KOKV 210535Z AUTO 21007KT 10SM CLR 03/M05 A3013 RMK AO2 =
2017-11-21 00:15 METAR KOKV 210515Z AUTO 22006KT 10SM CLR 03/M05 A3013 RMK AO2 =
2017-11-20 23:55 METAR KOKV 210455Z AUTO 22004KT 10SM CLR 02/M05 A3013 RMK AO2 =
2017-11-20 23:35 METAR KOKV 210435Z AUTO 19005KT 10SM CLR 02/M05 A3013 RMK AO2 =
2017-11-20 23:15 METAR KOKV 210415Z AUTO 21004KT 10SM CLR 02/M05 A3013 RMK AO2 =
2017-11-20 22:55 METAR KOKV 210355Z AUTO 22003KT 10SM CLR 03/M05 A3013 RMK AO2 =

Support USWX by starting your Amazon purchase here.